01:08 Rennrad Moetz - Pettnau - Zirl - Kematen - Voels - Radweg - Innsbruck ARZ
Ort Moetz Datum 07.09.2017 06:22:21
Kategorie Rennrad
Distanz 39,12 Kilometer Steigung 82,0 Meter Gefälle -141,0 Meter
Gesamt Zeit 01:08:08 Aktiv 01:07:39 Pause 00:00:29
Durchs. Tempo 34,7 km/h Tempo max. 49,1 km/h Tempo min. 19,7 km/h
Kalorien 0 Durchs. HF 134 BPM HF max. 153 BPM
Wetter 13 °C Clouds Min/Max: 12,9 °C/13,5 °C; Druck: 1001,2 mbar; Rel. Feuchte: 95,2%; Taupunkt: 12,7 °C; Windgeschwindigkeit: 0,0 km/h; Niederschlag: 0,0mm
Ausrüstung Bontrager - RL Road
Shimano - CN-HG601-11
Scott - Addict 20
Notiz Moetz - Pettnau - Zirl - Kematen - Voels - Radweg - Innsbruck ARZ ...nass, eher frisch, praktisch windstill - eher flott ... garmin connect
Splits
Distanz (km) Gesamt Zeit Split Zeit Split Tempo Split Tempo Höhenprofil (m)
1,00 00:02:06 00:02:06 00:02:07 28,4 -9,91
2,00 00:04:01 00:01:54 00:01:55 31,3 0,17
3,00 00:05:45 00:01:43 00:01:44 34,7 -0,62
4,00 00:07:31 00:01:46 00:01:46 33,9 -3,90
5,00 00:09:07 00:01:36 00:01:36 37,4 0,67
6,00 00:10:47 00:01:40 00:01:40 36,0 -0,35
7,00 00:12:31 00:01:43 00:01:43 34,8 -1,07
8,00 00:14:05 00:01:34 00:01:35 38,0 -7,57
9,00 00:15:45 00:01:39 00:01:40 36,1 -2,73
10,00 00:17:34 00:01:48 00:01:49 33,1 0,67
11,00 00:19:19 00:01:45 00:01:46 34,0 0,47
12,00 00:20:53 00:01:33 00:01:33 38,6 -6,38
13,00 00:22:27 00:01:33 00:01:34 38,4 -0,07
14,00 00:24:11 00:01:44 00:01:44 34,5 0,14
15,00 00:25:59 00:01:48 00:01:48 33,3 -4,70
16,00 00:27:36 00:01:37 00:01:37 37,1 3,49
17,00 00:29:19 00:01:43 00:01:43 34,8 -8,05
18,00 00:31:03 00:01:43 00:01:44 34,8 0,00
19,00 00:32:46 00:01:43 00:01:43 34,9 -0,51
20,00 00:34:29 00:01:42 00:01:43 35,1 -0,74
21,00 00:36:11 00:01:42 00:01:42 35,2 -3,23
22,00 00:37:54 00:01:42 00:01:43 35,0 -4,05
23,00 00:39:46 00:01:51 00:01:52 32,2 11,32
24,00 00:41:24 00:01:38 00:01:38 36,7 -0,90
25,00 00:43:38 00:02:13 00:02:14 26,9 16,73
26,00 00:45:08 00:01:30 00:01:30 39,8 -10,11
27,00 00:46:31 00:01:23 00:01:23 43,3 -29,74
28,00 00:48:08 00:01:36 00:01:37 37,2 4,01
29,00 00:49:55 00:01:46 00:01:47 33,8 0,57
30,00 00:51:38 00:01:43 00:01:43 34,9 -2,67
31,00 00:53:09 00:01:30 00:01:31 39,6 -3,25
32,00 00:54:42 00:01:33 00:01:33 38,7 -1,09
33,00 00:56:27 00:01:45 00:01:45 34,2 2,26
34,00 00:58:27 00:02:00 00:02:01 29,9 -8,28
35,00 01:00:07 00:01:39 00:01:40 36,0 -3,58
36,00 01:01:50 00:01:42 00:01:43 35,1 -2,00
37,00 01:03:30 00:01:40 00:01:40 35,9 -1,97
38,00 01:05:25 00:01:54 00:01:55 31,4 1,16
39,00 01:07:20 00:01:54 00:01:55 31,4 6,05
39,15 01:07:39 00:00:18 00:02:06 28,5 0,00